KCLT/CLT METAR and TAF weather

Enter ICAO airport designator
Station Type Date Time Source
KCLT METAR 2021/03/08 01:52 UTC NOAA

KCLT 080152Z 00000KT 10SM CLR 05/M07 A3039 RMK AO2 SLP292 T00501067


Station Type Date Time Source
KCLT Decoded METAR 2021/03/08 01:52 UTC NOAA

CHARLOTTE/DOUGLAS INTERNATIONAL , NC, United States (KCLT) 35-13N 80-57W 220M
Mar 07, 2021 - 08:52 PM EST / 2021.03.08 0152 UTC
Wind: Calm:0
Visibility: 10 mile(s):0
Sky conditions: clear
Temperature: 41.0 F (5.0 C)
Dew Point: 19.9 F (-6.7 C)
Relative Humidity: 42%
Pressure (altimeter): 30.39 in. Hg (1029 hPa)
ob: KCLT 080152Z 00000KT 10SM CLR 05/M07 A3039 RMK AO2 SLP292 T00501067
cycle: 2

Station Type Date Time Source
KCLT TAF 2021/03/08 02:03 UTC NOAA

TAF
AMD KCLT 080201Z 0802/0906 35003KT P6SM SKC
FM080600 01003KT P6SM SKC
FM081400 32003KT P6SM SKC
FM081900 23004KT P6SM FEW250

Example: see airport list